createdAt,value
2023-02-24T00:02:01.310Z,9.27
2023-02-24T00:04:31.373Z,7.68
2023-02-24T00:06:58.299Z,6.60
2023-02-24T00:09:26.931Z,8.30
2023-02-24T00:11:55.131Z,7.32
2023-02-24T00:14:22.694Z,8.35
2023-02-24T00:16:49.460Z,7.78
2023-02-24T00:19:19.185Z,9.13
2023-02-24T00:21:46.345Z,9.95
2023-02-24T00:24:13.058Z,9.05
2023-02-24T00:26:40.576Z,8.82
2023-02-24T00:29:10.020Z,8.18
2023-02-24T00:31:39.737Z,6.70
2023-02-24T00:34:07.036Z,8.20
2023-02-24T00:36:34.128Z,8.05
2023-02-24T00:39:12.060Z,8.25
2023-02-24T00:41:43.622Z,8.55
2023-02-24T00:44:13.394Z,7.93
2023-02-24T00:46:39.965Z,8.35
2023-02-24T00:49:28.803Z,7.97
2023-02-24T00:51:55.885Z,6.97
2023-02-24T00:54:25.388Z,6.97
2023-02-24T00:56:52.096Z,6.00
2023-02-24T00:59:18.968Z,6.50
2023-02-24T01:01:46.186Z,6.85
2023-02-24T01:04:14.223Z,5.13
2023-02-24T01:06:45.101Z,6.93
2023-02-24T01:09:15.096Z,6.63
2023-02-24T01:12:03.357Z,5.28
2023-02-24T01:14:32.635Z,8.55
2023-02-24T01:17:00.912Z,6.53
2023-02-24T01:19:30.472Z,6.53
2023-02-24T01:21:58.665Z,6.35
2023-02-24T01:24:26.052Z,7.50
2023-02-24T01:26:53.291Z,7.38
2023-02-24T01:29:22.701Z,7.97
2023-02-24T01:31:51.759Z,7.30
2023-02-24T01:34:19.202Z,7.10
2023-02-24T01:36:47.307Z,8.18
2023-02-24T01:39:13.937Z,8.20
2023-02-24T01:41:43.939Z,7.88
2023-02-24T01:44:14.200Z,7.40
2023-02-24T01:46:43.674Z,7.60
2023-02-24T01:49:22.707Z,6.15
2023-02-24T01:52:04.147Z,7.60
2023-02-24T01:54:35.263Z,6.72
2023-02-24T01:57:05.950Z,5.97
2023-02-24T01:59:35.560Z,8.50
2023-02-24T02:02:07.058Z,6.57
2023-02-24T02:04:48.170Z,7.53
2023-02-24T02:07:18.689Z,5.53
2023-02-24T02:09:47.158Z,7.85
2023-02-24T02:12:14.006Z,7.20
2023-02-24T02:14:47.967Z,6.57
2023-02-24T02:17:46.836Z,7.63
2023-02-24T02:20:53.825Z,6.78
2023-02-24T02:23:32.438Z,7.90
2023-02-24T02:26:18.933Z,6.72
2023-02-24T02:29:00.660Z,7.07
2023-02-24T02:31:33.483Z,6.88
2023-02-24T02:34:08.798Z,6.82
2023-02-24T02:37:08.627Z,7.53
2023-02-24T02:39:47.331Z,7.90
2023-02-24T02:42:30.630Z,5.47
2023-02-24T02:45:07.951Z,5.95
2023-02-24T02:47:41.917Z,5.20
2023-02-24T02:50:35.968Z,6.78
2023-02-24T02:53:10.372Z,5.10
2023-02-24T02:55:36.868Z,6.70
2023-02-24T02:58:09.191Z,5.22
2023-02-24T03:03:17.783Z,7.88
2023-02-24T03:06:04.613Z,5.10
2023-02-24T03:08:34.439Z,6.38
2023-02-24T03:11:05.661Z,7.07
2023-02-24T03:13:37.904Z,6.03
2023-02-24T03:18:36.661Z,6.30
2023-02-24T03:21:10.123Z,7.28
2023-02-24T03:23:45.375Z,6.20
2023-02-24T03:26:21.672Z,7.53
2023-02-24T03:29:11.498Z,7.22
2023-02-24T03:31:46.573Z,7.03
2023-02-24T03:34:38.254Z,6.60
2023-02-24T03:37:05.393Z,7.03
2023-02-24T03:39:32.738Z,6.65
2023-02-24T03:42:13.904Z,5.80
2023-02-24T03:44:40.453Z,6.20
2023-02-24T03:47:09.729Z,6.28
2023-02-24T03:49:38.382Z,6.32
2023-02-24T03:52:50.208Z,7.05
2023-02-24T03:55:35.363Z,6.82
2023-02-24T03:58:02.463Z,6.78
2023-02-24T04:00:39.824Z,6.18
2023-02-24T04:03:25.748Z,5.60
2023-02-24T04:06:05.012Z,6.18
2023-02-24T04:08:39.621Z,7.13
2023-02-24T04:11:27.451Z,5.45
2023-02-24T04:14:09.990Z,6.75
2023-02-24T04:16:47.218Z,6.88
2023-02-24T04:19:18.606Z,6.63
2023-02-24T04:21:50.411Z,5.70
2023-02-24T04:24:22.249Z,5.57
2023-02-24T04:26:51.315Z,5.72
2023-02-24T04:29:23.480Z,5.35
2023-02-24T04:32:05.810Z,4.78
2023-02-24T04:37:02.384Z,6.43
2023-02-24T04:39:30.846Z,6.05
2023-02-24T04:41:57.975Z,8.27
2023-02-24T04:44:26.245Z,8.32
2023-02-24T04:46:52.859Z,8.60
2023-02-24T04:49:20.359Z,7.72
2023-02-24T04:51:47.297Z,6.80
2023-02-24T04:54:17.660Z,7.15
2023-02-24T04:56:50.740Z,7.20
2023-02-24T04:59:21.931Z,8.93
2023-02-24T05:01:53.072Z,7.00
2023-02-24T05:04:20.032Z,6.80
2023-02-24T05:06:46.760Z,7.15
2023-02-24T05:09:18.067Z,8.43
2023-02-24T05:11:49.622Z,7.10
2023-02-24T05:14:18.159Z,8.85
2023-02-24T05:16:46.603Z,7.40
2023-02-24T05:19:34.361Z,6.75
2023-02-24T05:22:03.322Z,6.45
2023-02-24T05:24:31.752Z,11.10
2023-02-24T05:26:59.424Z,11.57
2023-02-24T05:29:30.269Z,8.55
2023-02-24T05:31:59.959Z,7.72
2023-02-24T05:34:31.956Z,8.60
2023-02-24T05:37:01.638Z,6.35
2023-02-24T05:39:28.524Z,7.22
2023-02-24T05:41:56.992Z,7.65
2023-02-24T05:44:26.259Z,7.13
2023-02-24T05:46:58.402Z,9.50
2023-02-24T05:49:33.145Z,20.80
2023-02-24T05:52:07.309Z,19.92
2023-02-24T05:54:39.706Z,12.85
2023-02-24T05:57:12.105Z,8.52
2023-02-24T05:59:42.408Z,8.50
2023-02-24T06:02:11.773Z,10.05
2023-02-24T06:04:41.108Z,15.52
2023-02-24T06:07:19.895Z,16.58
2023-02-24T06:09:50.229Z,10.00
2023-02-24T06:12:18.629Z,9.07
2023-02-24T06:14:45.245Z,8.57
2023-02-24T06:17:12.161Z,7.43
2023-02-24T06:19:41.386Z,7.63
2023-02-24T06:22:12.187Z,8.05
2023-02-24T06:24:42.935Z,7.28
2023-02-24T06:27:10.491Z,7.20
2023-02-24T06:29:40.029Z,7.70
2023-02-24T06:32:08.805Z,9.23
2023-02-24T06:34:36.497Z,9.23
2023-02-24T06:37:05.048Z,8.38
2023-02-24T06:39:36.726Z,9.45
2023-02-24T06:42:05.298Z,8.23
2023-02-24T06:44:32.927Z,7.95
2023-02-24T06:47:00.372Z,12.07
2023-02-24T06:49:27.345Z,13.80
2023-02-24T06:51:55.109Z,9.63
2023-02-24T06:54:22.938Z,9.23
2023-02-24T06:56:50.048Z,8.65
2023-02-24T06:59:21.786Z,12.23
2023-02-24T07:01:49.533Z,10.93
2023-02-24T07:04:18.001Z,15.05
2023-02-24T07:06:52.300Z,11.27
2023-02-24T07:09:21.960Z,11.25
2023-02-24T07:11:52.345Z,10.15
2023-02-24T07:14:21.844Z,8.10
2023-02-24T07:16:54.391Z,8.23
2023-02-24T07:19:24.622Z,8.35
2023-02-24T07:21:52.718Z,7.90
2023-02-24T07:24:25.629Z,8.88
2023-02-24T07:26:57.616Z,9.25
2023-02-24T07:29:26.077Z,9.52
2023-02-24T07:31:56.722Z,9.50
2023-02-24T07:34:25.456Z,8.07
2023-02-24T07:36:53.094Z,8.15
2023-02-24T07:39:22.974Z,7.93
2023-02-24T07:41:51.982Z,6.57
2023-02-24T07:44:19.943Z,14.93
2023-02-24T07:46:48.921Z,29.98
2023-02-24T07:49:19.808Z,19.55
2023-02-24T07:51:52.886Z,9.85
2023-02-24T07:54:21.795Z,13.10
2023-02-24T07:56:57.038Z,17.63
2023-02-24T07:59:27.482Z,16.25
2023-02-24T08:01:55.866Z,15.25
2023-02-24T08:04:28.592Z,13.35
2023-02-24T08:06:56.218Z,8.98
2023-02-24T08:09:44.393Z,7.22
2023-02-24T08:12:21.854Z,16.15
2023-02-24T08:14:53.379Z,14.30
2023-02-24T08:17:23.966Z,11.97
2023-02-24T08:20:16.057Z,10.35
2023-02-24T08:22:46.809Z,13.00
2023-02-24T08:25:18.704Z,13.88
2023-02-24T08:28:06.941Z,10.15
2023-02-24T08:30:39.667Z,12.00
2023-02-24T08:33:09.512Z,11.32
2023-02-24T08:35:38.597Z,15.05
2023-02-24T08:38:14.384Z,11.15
2023-02-24T08:40:50.945Z,10.57
2023-02-24T08:43:20.156Z,8.88
2023-02-24T08:45:59.512Z,9.68
2023-02-24T08:48:37.887Z,10.07
2023-02-24T08:51:34.870Z,8.10
2023-02-24T08:54:11.413Z,7.80
2023-02-24T08:56:43.706Z,8.35
2023-02-24T09:02:17.632Z,7.53
2023-02-24T09:04:56.918Z,8.38
2023-02-24T09:07:29.189Z,8.13
2023-02-24T09:12:29.199Z,7.07
2023-02-24T09:15:01.146Z,6.95
2023-02-24T09:18:02.235Z,8.35
2023-02-24T09:20:47.649Z,8.30
2023-02-24T09:23:20.318Z,7.55
2023-02-24T09:25:49.693Z,7.75
2023-02-24T09:28:24.712Z,8.35
2023-02-24T09:31:04.849Z,8.63
2023-02-24T09:33:41.638Z,8.18
2023-02-24T09:36:28.086Z,8.30
2023-02-24T09:39:00.274Z,8.30
2023-02-24T09:41:59.640Z,8.32
2023-02-24T09:44:53.048Z,8.63
2023-02-24T09:47:51.226Z,9.07
2023-02-24T09:51:01.653Z,9.15
2023-02-24T09:53:29.517Z,10.05
2023-02-24T09:56:05.661Z,10.07
2023-02-24T09:59:12.792Z,9.90
2023-02-24T10:01:54.728Z,8.77
2023-02-24T10:04:30.828Z,10.48
2023-02-24T10:07:17.951Z,9.82
2023-02-24T10:09:55.103Z,9.82
2023-02-24T10:12:40.037Z,10.50
2023-02-24T10:15:19.770Z,10.18
2023-02-24T10:17:53.433Z,10.70
2023-02-24T10:20:31.224Z,10.38
2023-02-24T10:23:11.841Z,10.27
2023-02-24T10:25:56.160Z,9.68
2023-02-24T10:28:36.181Z,10.18
2023-02-24T10:31:10.601Z,10.50
2023-02-24T10:33:45.204Z,10.63
2023-02-24T10:36:17.985Z,10.65
2023-02-24T10:38:46.018Z,9.60
2023-02-24T10:41:14.730Z,10.73
2023-02-24T10:43:53.917Z,9.98
2023-02-24T10:46:39.991Z,10.00
2023-02-24T10:49:15.744Z,10.90
2023-02-24T10:51:47.317Z,10.95
2023-02-24T10:54:45.053Z,11.07
2023-02-24T10:57:18.769Z,10.73
2023-02-24T11:00:18.897Z,10.52
2023-02-24T11:03:08.387Z,11.93
2023-02-24T11:05:56.384Z,10.10
2023-02-24T11:08:41.918Z,10.23
2023-02-24T11:11:53.967Z,10.50
2023-02-24T11:14:39.749Z,9.73
2023-02-24T11:17:20.929Z,11.45
2023-02-24T11:19:57.799Z,10.07
2023-02-24T11:22:32.729Z,11.10
2023-02-24T11:25:07.149Z,11.52
2023-02-24T11:27:34.634Z,10.68
2023-02-24T11:30:06.419Z,11.85
2023-02-24T11:32:51.479Z,11.38
2023-02-24T11:35:26.555Z,10.77
2023-02-24T11:38:17.689Z,10.57
2023-02-24T11:41:00.121Z,12.25
2023-02-24T11:46:02.049Z,10.38
2023-02-24T11:48:32.215Z,11.63
2023-02-24T11:51:16.573Z,12.82
2023-02-24T11:53:49.103Z,12.27
2023-02-24T11:56:29.390Z,13.25
2023-02-24T11:59:12.586Z,12.15
2023-02-24T12:02:04.413Z,13.25
2023-02-24T12:04:46.431Z,14.00
2023-02-24T12:07:25.284Z,13.23
2023-02-24T12:10:10.654Z,12.45
2023-02-24T12:13:00.630Z,11.57
2023-02-24T12:15:32.606Z,12.02
2023-02-24T12:18:21.995Z,11.93
2023-02-24T12:21:30.610Z,12.88
2023-02-24T12:23:58.894Z,13.93
2023-02-24T12:26:28.776Z,12.48
2023-02-24T12:29:12.300Z,11.50
2023-02-24T12:32:04.614Z,12.35
2023-02-24T12:34:58.125Z,11.95
2023-02-24T12:37:51.151Z,12.40
2023-02-24T12:40:30.961Z,13.98
2023-02-24T12:43:06.119Z,12.52
2023-02-24T12:45:48.013Z,12.73
2023-02-24T12:48:31.988Z,12.52
2023-02-24T12:51:28.030Z,14.30
2023-02-24T12:54:13.849Z,13.05
2023-02-24T12:56:56.195Z,13.02
2023-02-24T12:59:38.511Z,12.68
2023-02-24T13:04:53.677Z,15.07
2023-02-24T13:07:39.063Z,10.98
2023-02-24T13:10:48.766Z,12.90
2023-02-24T13:13:30.752Z,15.07
2023-02-24T13:16:02.692Z,13.05
2023-02-24T13:18:39.629Z,13.57
2023-02-24T13:21:22.767Z,12.90
2023-02-24T13:23:58.906Z,14.68
2023-02-24T13:26:27.830Z,15.30
2023-02-24T13:29:09.232Z,15.82
2023-02-24T13:31:56.392Z,14.00
2023-02-24T13:34:26.522Z,14.88
2023-02-24T13:36:53.500Z,13.32
2023-02-24T13:39:37.515Z,13.10
2023-02-24T13:42:20.820Z,14.55
2023-02-24T13:44:59.830Z,14.70
2023-02-24T13:47:47.712Z,13.40
2023-02-24T13:50:56.369Z,14.57
2023-02-24T13:53:46.831Z,13.15
2023-02-24T13:56:49.834Z,13.98
2023-02-24T13:59:50.934Z,13.27
2023-02-24T14:02:21.579Z,15.18
2023-02-24T14:04:54.132Z,14.45
2023-02-24T14:07:28.641Z,13.20
2023-02-24T14:10:02.374Z,15.80
2023-02-24T14:12:32.241Z,14.27
2023-02-24T14:14:59.863Z,14.63
2023-02-24T14:17:38.447Z,14.55
2023-02-24T14:20:08.148Z,14.40
2023-02-24T14:22:57.734Z,13.65
2023-02-24T14:28:35.292Z,14.70
2023-02-24T14:31:11.983Z,14.13
2023-02-24T14:33:41.522Z,13.98
2023-02-24T14:36:22.788Z,15.27
2023-02-24T14:39:02.935Z,14.60
2023-02-24T14:41:29.638Z,13.85
2023-02-24T14:43:57.026Z,14.38
2023-02-24T14:46:24.380Z,14.25
2023-02-24T14:49:03.572Z,13.32
2023-02-24T14:51:35.861Z,14.43
2023-02-24T14:56:35.680Z,14.18
2023-02-24T14:59:09.763Z,17.25
2023-02-24T15:02:04.832Z,14.25
2023-02-24T15:04:43.793Z,15.23
2023-02-24T15:07:25.373Z,15.90
2023-02-24T15:09:53.828Z,15.53
2023-02-24T15:12:30.647Z,15.27
2023-02-24T15:15:29.622Z,15.38
2023-02-24T15:18:00.640Z,14.93
2023-02-24T15:20:35.418Z,15.70
2023-02-24T15:23:02.703Z,15.55
2023-02-24T15:25:42.993Z,19.30
2023-02-24T15:28:24.626Z,19.35
2023-02-24T15:31:17.962Z,21.23
2023-02-24T15:33:54.387Z,22.52
2023-02-24T15:36:24.043Z,21.15
2023-02-24T15:38:54.961Z,18.83
2023-02-24T15:41:21.554Z,18.58
2023-02-24T15:43:52.805Z,18.10
2023-02-24T15:46:19.714Z,19.05
2023-02-24T15:48:51.378Z,20.42
2023-02-24T15:51:38.500Z,19.45
2023-02-24T15:54:13.377Z,19.98
2023-02-24T15:56:41.483Z,19.20
2023-02-24T15:59:10.356Z,20.83
2023-02-24T16:01:37.088Z,21.15
2023-02-24T16:04:05.083Z,21.02
2023-02-24T16:06:32.163Z,21.77
2023-02-24T16:08:59.458Z,21.50
2023-02-24T16:11:29.366Z,22.27
2023-02-24T16:13:59.036Z,24.88
2023-02-24T16:16:27.162Z,23.08
2023-02-24T16:18:53.937Z,24.55
2023-02-24T16:21:20.993Z,25.63
2023-02-24T16:23:47.677Z,29.15
2023-02-24T16:26:20.255Z,30.35
2023-02-24T16:28:55.855Z,30.25
2023-02-24T16:31:24.132Z,26.20
2023-02-24T16:33:55.358Z,28.65
2023-02-24T16:36:25.440Z,29.65
2023-02-24T16:38:52.640Z,28.42
2023-02-24T16:41:19.757Z,30.27
2023-02-24T16:43:46.561Z,28.58
2023-02-24T16:46:18.408Z,27.77
2023-02-24T16:48:47.694Z,30.77
2023-02-24T16:51:15.867Z,29.33
2023-02-24T16:53:43.238Z,30.13
2023-02-24T16:56:10.275Z,31.77
2023-02-24T16:58:36.960Z,29.88
2023-02-24T17:01:04.898Z,29.80
2023-02-24T17:03:44.582Z,31.48
2023-02-24T17:06:11.855Z,30.70
2023-02-24T17:08:38.827Z,32.33
2023-02-24T17:11:06.169Z,34.55
2023-02-24T17:13:32.968Z,32.70
2023-02-24T17:16:00.474Z,32.38
2023-02-24T17:18:28.402Z,29.50
2023-02-24T17:20:55.429Z,28.42
2023-02-24T17:23:22.323Z,30.38
2023-02-24T17:25:53.140Z,25.02
2023-02-24T17:28:20.739Z,26.08
2023-02-24T17:30:47.580Z,28.38
2023-02-24T17:33:14.743Z,33.42
2023-02-24T17:35:42.620Z,34.50
2023-02-24T17:38:13.731Z,37.70
2023-02-24T17:40:41.375Z,35.17
2023-02-24T17:43:08.421Z,35.10
2023-02-24T17:45:35.322Z,33.63
2023-02-24T17:48:02.151Z,34.05
2023-02-24T17:50:29.495Z,34.78
2023-02-24T17:52:57.844Z,53.35
2023-02-24T17:55:24.583Z,38.03
2023-02-24T17:57:51.603Z,39.65
2023-02-24T18:00:20.516Z,34.10
2023-02-24T18:02:50.092Z,36.67
2023-02-24T18:05:17.135Z,34.95
2023-02-24T18:07:44.396Z,27.95
2023-02-24T18:10:11.855Z,30.13
2023-02-24T18:12:39.624Z,30.80
2023-02-24T18:15:09.773Z,30.35
2023-02-24T18:17:38.992Z,31.80
2023-02-24T18:20:07.600Z,33.72
2023-02-24T18:22:39.402Z,33.47
2023-02-24T18:25:06.934Z,33.95
2023-02-24T18:27:34.071Z,30.85
2023-02-24T18:30:01.366Z,30.73
2023-02-24T18:32:30.805Z,28.20
2023-02-24T18:35:02.660Z,29.30
2023-02-24T18:37:30.052Z,29.85
2023-02-24T18:40:04.442Z,27.13
2023-02-24T18:42:31.746Z,25.70
2023-02-24T18:44:58.554Z,32.95
2023-02-24T18:47:25.386Z,29.77
2023-02-24T18:49:55.143Z,27.77
2023-02-24T18:52:22.074Z,25.40
2023-02-24T18:55:11.281Z,24.75
2023-02-24T18:57:52.897Z,27.52
2023-02-24T19:00:20.894Z,30.40
2023-02-24T19:02:47.829Z,28.13
2023-02-24T19:05:17.550Z,28.60
2023-02-24T19:07:45.253Z,26.45
2023-02-24T19:10:15.225Z,26.20
2023-02-24T19:12:43.399Z,28.98
2023-02-24T19:15:10.597Z,28.42
2023-02-24T19:17:40.627Z,28.27
2023-02-24T19:20:09.053Z,32.53
2023-02-24T19:22:36.127Z,26.75
2023-02-24T19:25:03.071Z,28.23
2023-02-24T19:27:30.058Z,27.38
2023-02-24T19:29:57.894Z,27.60
2023-02-24T19:32:24.829Z,29.48
2023-02-24T19:34:52.969Z,33.00
2023-02-24T19:37:19.839Z,31.50
2023-02-24T19:39:46.703Z,26.02
2023-02-24T19:42:13.648Z,23.98
2023-02-24T19:44:41.207Z,26.23
2023-02-24T19:47:08.079Z,27.17
2023-02-24T19:49:35.416Z,28.10
2023-02-24T19:52:02.472Z,28.33
2023-02-24T19:54:30.474Z,27.60
2023-02-24T19:56:58.400Z,29.92
2023-02-24T19:59:25.569Z,27.65
2023-02-24T20:01:54.973Z,25.15
2023-02-24T20:04:23.295Z,29.83
2023-02-24T20:06:50.460Z,26.88
2023-02-24T20:09:23.402Z,29.25
2023-02-24T20:11:51.601Z,32.17
2023-02-24T20:14:20.317Z,30.83
2023-02-24T20:16:47.673Z,28.67
2023-02-24T20:19:15.404Z,26.00
2023-02-24T20:21:42.599Z,27.27
2023-02-24T20:24:13.889Z,28.17
2023-02-24T20:26:42.501Z,27.13
2023-02-24T20:29:11.582Z,26.42
2023-02-24T20:31:38.874Z,27.00
2023-02-24T20:34:06.732Z,25.55
2023-02-24T20:36:33.870Z,26.40
2023-02-24T20:39:00.884Z,24.85
2023-02-24T20:41:28.233Z,24.80
2023-02-24T20:43:55.730Z,25.27
2023-02-24T20:46:31.495Z,24.58
2023-02-24T20:49:00.584Z,25.27
2023-02-24T20:51:29.525Z,25.25
2023-02-24T20:53:58.727Z,25.67
2023-02-24T20:56:36.565Z,25.60
2023-02-24T20:59:15.966Z,26.00
2023-02-24T21:01:47.079Z,23.33
2023-02-24T21:04:22.481Z,25.92
2023-02-24T21:06:51.729Z,25.73
2023-02-24T21:09:25.898Z,29.02
2023-02-24T21:11:58.546Z,28.25
2023-02-24T21:14:31.356Z,27.83
2023-02-24T21:16:58.399Z,30.58
2023-02-24T21:19:30.621Z,29.20
2023-02-24T21:22:14.007Z,29.13
2023-02-24T21:24:47.632Z,29.20
2023-02-24T21:27:28.204Z,27.35
2023-02-24T21:30:02.580Z,22.55
2023-02-24T21:32:39.546Z,32.30
2023-02-24T21:35:09.135Z,31.50
2023-02-24T21:37:42.295Z,26.88
2023-02-24T21:40:19.251Z,30.25
2023-02-24T21:43:05.715Z,31.27
2023-02-24T21:45:35.581Z,31.95
2023-02-24T21:48:09.479Z,33.00
2023-02-24T21:50:37.904Z,33.08
2023-02-24T21:53:10.194Z,39.15
2023-02-24T21:58:22.237Z,40.10
2023-02-24T22:00:51.961Z,39.50
2023-02-24T22:03:21.426Z,63.45
2023-02-24T22:05:53.727Z,42.17
2023-02-24T22:11:05.103Z,34.80
2023-02-24T22:13:45.625Z,36.00
2023-02-24T22:16:32.811Z,35.85
2023-02-24T22:18:59.586Z,38.42
2023-02-24T22:21:28.462Z,43.25
2023-02-24T22:23:58.156Z,42.10
2023-02-24T22:26:27.437Z,40.35
2023-02-24T22:28:55.099Z,37.97
2023-02-24T22:31:24.298Z,43.85
2023-02-24T22:33:51.101Z,50.20
2023-02-24T22:36:22.895Z,40.78
2023-02-24T22:38:49.940Z,47.63
2023-02-24T22:41:22.551Z,43.05
2023-02-24T22:43:49.593Z,45.38
2023-02-24T22:46:23.627Z,37.72
2023-02-24T22:48:50.577Z,38.47
2023-02-24T22:51:18.658Z,38.15
2023-02-24T22:53:48.954Z,37.40
2023-02-24T22:56:19.022Z,33.83
2023-02-24T22:58:46.282Z,35.67
2023-02-24T23:01:19.480Z,33.05
2023-02-24T23:03:46.613Z,35.47
2023-02-24T23:06:16.154Z,36.38
2023-02-24T23:08:44.988Z,35.42
2023-02-24T23:11:14.815Z,35.92
2023-02-24T23:13:43.060Z,35.35
2023-02-24T23:16:14.055Z,35.22
2023-02-24T23:18:41.881Z,34.78
2023-02-24T23:21:10.080Z,36.40
2023-02-24T23:23:37.594Z,34.75
2023-02-24T23:26:05.527Z,34.85
2023-02-24T23:28:32.331Z,35.65
2023-02-24T23:30:59.245Z,35.08
2023-02-24T23:33:26.411Z,37.97
2023-02-24T23:35:53.103Z,38.25
2023-02-24T23:38:19.852Z,38.92
2023-02-24T23:40:51.039Z,38.45
2023-02-24T23:43:18.235Z,37.83
2023-02-24T23:45:45.193Z,35.30
2023-02-24T23:48:14.557Z,37.60
2023-02-24T23:50:42.463Z,38.22
2023-02-24T23:53:09.623Z,35.97
2023-02-24T23:55:39.007Z,36.13
2023-02-24T23:58:07.631Z,38.53
